Time;durP1;ratioP1;P1;durP2;ratioP2;P2;SDS_P1;SDS_P2;PMS_P1;PMS_P2;Temp;Humidity;BMP_temperature;BMP_pressure;BME280_temperature;BME280_humidity;BME280_pressure;Samples;Min_cycle;Max_cycle;Signal;HPM_P1;HPM_P2
2023/08/31 00:00:00;;;;;;;7.82;2.38;;;14.20;78.70;;;;;;9178589;19;20018;-67
2023/08/31 00:03:06;;;;;;;4.07;1.80;;;14.20;78.60;;;;;;9178978;19;20014;-67
2023/08/31 00:06:14;;;;;;;4.65;1.73;;;14.10;78.60;;;;;;9177097;19;20029;-67
2023/08/31 00:09:19;;;;;;;5.72;2.25;;;14.10;78.60;;;;;;9178088;19;20346;-67
2023/08/31 00:12:29;;;;;;;7.40;1.80;;;14.10;78.70;;;;;;9178007;19;20010;-67
2023/08/31 00:15:35;;;;;;;9.38;2.80;;;14.10;78.70;;;;;;9178412;19;20025;-67
2023/08/31 00:18:44;;;;;;;4.38;2.33;;;14.10;78.70;;;;;;9178021;19;20472;-68
2023/08/31 00:21:50;;;;;;;5.85;2.28;;;14.10;78.80;;;;;;9178596;19;20472;-67
2023/08/31 00:24:57;;;;;;;4.93;2.17;;;14.00;78.70;;;;;;9177377;19;20372;-68
2023/08/31 00:28:07;;;;;;;3.53;1.50;;;14.00;78.80;;;;;;9172630;19;20372;-68
2023/08/31 00:31:16;;;;;;;8.23;2.05;;;14.00;78.80;;;;;;9177804;19;20014;-67
2023/08/31 00:34:21;;;;;;;7.53;2.00;;;14.00;78.80;;;;;;9177676;19;20040;-68
2023/08/31 00:37:29;;;;;;;5.20;2.20;;;13.90;78.90;;;;;;9171656;19;20379;-67
2023/08/31 00:40:38;;;;;;;10.40;2.67;;;13.90;78.90;;;;;;9174653;19;20078;-66
2023/08/31 00:43:48;;;;;;;6.40;2.13;;;13.90;79.00;;;;;;9172042;19;20409;-68
2023/08/31 00:46:54;;;;;;;5.07;2.90;;;13.90;79.00;;;;;;9175381;19;20379;-66
2023/08/31 00:50:02;;;;;;;13.02;2.42;;;13.90;79.00;;;;;;9173149;19;20034;-66
2023/08/31 00:53:08;;;;;;;8.07;2.33;;;13.90;79.00;;;;;;9174825;19;20048;-67
2023/08/31 00:56:16;;;;;;;2.97;2.25;;;13.80;79.00;;;;;;9177333;19;20015;-66
2023/08/31 00:59:24;;;;;;;4.47;2.10;;;13.80;79.00;;;;;;9176364;19;20014;-67
2023/08/31 01:02:58;;;;;;;5.15;2.38;;;13.80;79.10;;;;;;9176876;19;20090;-67
2023/08/31 01:06:10;;;;;;;4.00;2.20;;;13.80;79.20;;;;;;9176261;19;20452;-69
2023/08/31 01:09:27;;;;;;;6.93;1.85;;;13.80;79.20;;;;;;9176849;19;20021;-68
2023/08/31 01:12:42;;;;;;;6.90;1.92;;;13.80;79.20;;;;;;9175890;19;20476;-67
2023/08/31 01:15:56;;;;;;;8.70;2.30;;;13.80;79.20;;;;;;9172678;19;20015;-67
2023/08/31 01:19:02;;;;;;;4.03;1.90;;;13.70;79.20;;;;;;9177204;19;20010;-68
2023/08/31 01:22:16;;;;;;;3.00;1.75;;;13.70;79.10;;;;;;9174873;19;20056;-69
2023/08/31 01:25:27;;;;;;;3.95;1.90;;;13.70;79.10;;;;;;9175204;19;20007;-68
2023/08/31 01:28:36;;;;;;;3.83;2.08;;;13.60;78.90;;;;;;9171752;19;20021;-68
2023/08/31 01:31:45;;;;;;;4.00;1.63;;;13.60;78.90;;;;;;9175211;19;20373;-68
2023/08/31 01:34:53;;;;;;;6.15;2.22;;;13.60;79.00;;;;;;9179353;19;20007;-68
2023/08/31 01:38:02;;;;;;;4.88;1.85;;;13.60;79.00;;;;;;9184683;19;20015;-67
2023/08/31 01:41:16;;;;;;;4.10;1.85;;;13.50;79.00;;;;;;9185055;19;20018;-69
2023/08/31 01:44:22;;;;;;;4.35;1.90;;;13.50;79.10;;;;;;9182734;19;20064;-68
2023/08/31 01:47:30;;;;;;;6.68;2.20;;;13.50;79.10;;;;;;9180223;19;20010;-67
2023/08/31 01:50:35;;;;;;;4.25;2.15;;;13.50;79.20;;;;;;9182913;19;20006;-67
2023/08/31 01:53:44;;;;;;;5.32;2.28;;;13.50;79.10;;;;;;9184140;19;20010;-66
2023/08/31 01:56:52;;;;;;;3.00;1.80;;;13.50;79.10;;;;;;9182354;19;20470;-68
2023/08/31 01:59:59;;;;;;;3.80;2.08;;;13.50;79.20;;;;;;9183029;19;20029;-68
2023/08/31 02:03:06;;;;;;;9.35;2.97;;;13.40;79.10;;;;;;9183311;19;20492;-66
2023/08/31 02:06:14;;;;;;;4.25;1.90;;;13.40;79.20;;;;;;9181908;19;20010;-68
2023/08/31 02:09:19;;;;;;;4.53;2.20;;;13.40;79.30;;;;;;9183706;19;20019;-67
2023/08/31 02:12:29;;;;;;;4.35;2.30;;;13.40;79.40;;;;;;9183833;19;20046;-69
2023/08/31 02:15:34;;;;;;;2.45;2.17;;;13.40;79.50;;;;;;9184144;19;20010;-69
2023/08/31 02:18:42;;;;;;;4.18;2.85;;;13.40;79.40;;;;;;9182103;19;20018;-67
2023/08/31 02:21:47;;;;;;;6.57;2.85;;;13.50;79.60;;;;;;9184029;19;20018;-68
2023/08/31 02:24:54;;;;;;;3.83;2.58;;;13.50;79.70;;;;;;9183569;19;20018;-67
2023/08/31 02:28:02;;;;;;;4.30;2.33;;;13.50;79.70;;;;;;9177148;19;20017;-67
2023/08/31 02:31:10;;;;;;;5.43;2.83;;;13.50;79.70;;;;;;9183248;19;20022;-67
2023/08/31 02:34:15;;;;;;;10.88;3.13;;;13.50;79.70;;;;;;9181506;19;20014;-67
2023/08/31 02:37:22;;;;;;;8.23;3.08;;;13.50;79.80;;;;;;9182407;19;20025;-67
2023/08/31 02:40:28;;;;;;;5.43;3.53;;;13.50;79.80;;;;;;9180400;19;20022;-67
2023/08/31 02:43:39;;;;;;;5.65;3.65;;;13.50;79.90;;;;;;9182473;19;20022;-70
2023/08/31 02:46:44;;;;;;;6.32;3.22;;;13.50;80.00;;;;;;9179832;19;20020;-67
2023/08/31 02:49:51;;;;;;;5.72;3.60;;;13.50;79.90;;;;;;9180148;19;20374;-67
2023/08/31 02:52:57;;;;;;;6.55;3.85;;;13.60;79.90;;;;;;9182960;19;20022;-68
2023/08/31 02:56:05;;;;;;;6.85;3.83;;;13.60;79.90;;;;;;9181668;19;20025;-67
2023/08/31 02:59:12;;;;;;;6.03;3.75;;;13.60;80.00;;;;;;9181662;19;20017;-67
2023/08/31 03:02:20;;;;;;;7.97;3.92;;;13.50;80.00;;;;;;9179127;19;20014;-67
2023/08/31 03:05:25;;;;;;;9.48;4.18;;;13.50;80.00;;;;;;9181864;19;20018;-67
2023/08/31 03:08:33;;;;;;;6.35;4.32;;;13.50;80.00;;;;;;9178758;19;20368;-68
2023/08/31 03:11:38;;;;;;;9.20;5.57;;;13.50;80.00;;;;;;9180615;19;20048;-71
2023/08/31 03:14:48;;;;;;;14.40;5.93;;;13.50;80.10;;;;;;9179445;19;20033;-67
2023/08/31 03:17:55;;;;;;;8.82;4.47;;;13.50;80.20;;;;;;9178824;19;20020;-68
2023/08/31 03:21:04;;;;;;;10.45;4.78;;;13.50;80.10;;;;;;9180237;19;20022;-67
2023/08/31 03:24:09;;;;;;;8.90;4.93;;;13.50;80.80;;;;;;9180557;19;20018;-67
2023/08/31 03:27:19;;;;;;;10.73;4.88;;;13.50;80.20;;;;;;9175360;19;20018;-68
2023/08/31 03:30:27;;;;;;;9.15;5.03;;;13.40;80.20;;;;;;9180134;19;20015;-67
2023/08/31 03:33:34;;;;;;;9.73;4.50;;;13.40;80.30;;;;;;9179536;19;20086;-67
2023/08/31 03:36:39;;;;;;;7.32;4.75;;;13.40;80.40;;;;;;9180195;19;20019;-67
2023/08/31 03:39:49;;;;;;;7.60;4.15;;;13.40;80.90;;;;;;9179946;19;20015;-68
2023/08/31 03:42:54;;;;;;;13.00;5.35;;;13.40;80.40;;;;;;9178286;19;20014;-67
2023/08/31 03:46:05;;;;;;;7.47;4.93;;;13.40;80.40;;;;;;9179555;19;20022;-66
2023/08/31 03:49:10;;;;;;;8.68;4.68;;;13.40;80.40;;;;;;9174053;19;20086;-66
2023/08/31 03:52:17;;;;;;;8.00;4.45;;;13.40;80.40;;;;;;9170969;19;20010;-67
2023/08/31 03:55:23;;;;;;;7.55;4.32;;;13.40;80.50;;;;;;9176334;19;20056;-66
2023/08/31 03:58:32;;;;;;;8.02;3.75;;;13.40;80.60;;;;;;9174958;19;20033;-66
2023/08/31 04:01:39;;;;;;;6.90;3.90;;;13.40;80.60;;;;;;9179642;19;20032;-67
2023/08/31 04:04:47;;;;;;;8.25;4.38;;;13.40;80.70;;;;;;9176984;19;20018;-67
2023/08/31 04:07:52;;;;;;;9.90;4.63;;;13.40;80.60;;;;;;9178422;19;20018;-66
2023/08/31 04:10:59;;;;;;;6.95;4.43;;;13.40;80.60;;;;;;9176677;19;20025;-66
2023/08/31 04:14:05;;;;;;;10.50;4.90;;;13.40;80.60;;;;;;9179147;19;20021;-68
2023/08/31 04:17:15;;;;;;;6.85;4.68;;;13.40;80.60;;;;;;9178806;19;20029;-68
2023/08/31 04:20:21;;;;;;;8.23;5.15;;;13.30;80.60;;;;;;9176902;19;20009;-67
2023/08/31 04:23:28;;;;;;;8.75;4.63;;;13.30;80.60;;;;;;9178496;19;20018;-70
2023/08/31 04:26:34;;;;;;;8.20;5.35;;;13.30;80.60;;;;;;9171838;19;20017;-67
2023/08/31 04:29:41;;;;;;;7.95;4.93;;;13.30;80.60;;;;;;9176319;19;20015;-67
2023/08/31 04:32:49;;;;;;;10.57;5.03;;;13.30;80.60;;;;;;9178042;19;20379;-67
2023/08/31 04:35:56;;;;;;;9.43;5.80;;;13.30;80.60;;;;;;9178269;19;20037;-67
2023/08/31 04:39:03;;;;;;;8.20;5.28;;;13.30;80.60;;;;;;9176223;19;20316;-68
2023/08/31 04:42:10;;;;;;;7.65;5.82;;;13.20;80.50;;;;;;9178278;19;20050;-67
2023/08/31 04:45:15;;;;;;;11.20;5.88;;;13.20;80.60;;;;;;9176603;19;20014;-66
2023/08/31 04:48:25;;;;;;;9.10;6.15;;;13.20;80.60;;;;;;9176364;19;20031;-67
2023/08/31 04:51:32;;;;;;;9.98;6.63;;;13.20;80.80;;;;;;9177159;19;20018;-67
2023/08/31 04:54:39;;;;;;;10.35;6.63;;;13.20;80.80;;;;;;9174003;19;20015;-67
2023/08/31 04:57:44;;;;;;;10.00;6.22;;;13.10;80.70;;;;;;9176960;19;20014;-68
2023/08/31 05:00:52;;;;;;;10.70;5.90;;;13.10;80.80;;;;;;9176279;19;20022;-67
2023/08/31 05:04:00;;;;;;;9.23;6.45;;;13.10;80.80;;;;;;9166681;19;20047;-66
2023/08/31 05:07:07;;;;;;;11.13;5.95;;;13.10;80.90;;;;;;9167497;19;20494;-67
2023/08/31 05:10:12;;;;;;;9.38;6.03;;;13.10;80.80;;;;;;9166539;19;20384;-69
2023/08/31 05:13:20;;;;;;;8.70;6.18;;;13.10;80.90;;;;;;9176858;19;20524;-69
2023/08/31 05:16:25;;;;;;;11.50;6.07;;;13.10;80.90;;;;;;9184658;19;20019;-68
2023/08/31 05:19:35;;;;;;;10.52;6.07;;;13.10;81.00;;;;;;9182072;19;20476;-69
2023/08/31 05:22:40;;;;;;;11.77;6.07;;;13.10;81.00;;;;;;9180408;19;20110;-70
2023/08/31 05:25:48;;;;;;;8.48;5.75;;;13.10;81.10;;;;;;9182085;19;20014;-70
2023/08/31 05:28:53;;;;;;;15.85;6.20;;;13.10;81.00;;;;;;9184164;19;20025;-67
2023/08/31 05:32:00;;;;;;;11.80;5.82;;;13.10;81.00;;;;;;9183545;19;20456;-67
2023/08/31 05:35:09;;;;;;;8.18;5.43;;;13.10;81.10;;;;;;9183073;19;20602;-69
2023/08/31 05:38:17;;;;;;;8.82;5.20;;;13.20;81.20;;;;;;9183956;19;20014;-66
2023/08/31 05:41:22;;;;;;;9.43;5.32;;;13.10;81.20;;;;;;9185408;19;20011;-66
2023/08/31 05:44:30;;;;;;;12.15;6.28;;;13.20;81.30;;;;;;9184958;19;20018;-67
2023/08/31 05:47:35;;;;;;;8.20;4.80;;;13.20;81.30;;;;;;9185385;19;20026;-67
2023/08/31 05:50:45;;;;;;;10.30;5.15;;;13.30;81.40;;;;;;9182443;19;20054;-67
2023/08/31 05:53:50;;;;;;;12.23;4.55;;;13.20;81.40;;;;;;9184682;19;20046;-67
2023/08/31 05:56:57;;;;;;;9.77;5.25;;;13.30;81.40;;;;;;9184335;19;20591;-69
2023/08/31 06:00:03;;;;;;;8.27;5.03;;;13.30;81.50;;;;;;9184479;19;20522;-67
2023/08/31 06:03:18;;;;;;;9.23;4.95;;;13.30;81.60;;;;;;9184479;19;20658;-66
2023/08/31 06:06:26;;;;;;;9.73;4.85;;;13.40;81.70;;;;;;9184035;19;20101;-68
2023/08/31 06:09:34;;;;;;;10.18;5.40;;;13.50;81.90;;;;;;9182769;19;20021;-68
2023/08/31 06:12:39;;;;;;;8.43;4.70;;;13.60;82.00;;;;;;9184262;19;20472;-67
2023/08/31 06:15:47;;;;;;;8.95;4.75;;;13.80;82.10;;;;;;9181613;19;20417;-67
2023/08/31 06:18:52;;;;;;;11.48;5.30;;;13.80;82.10;;;;;;9183559;19;20487;-68
2023/08/31 06:22:03;;;;;;;8.00;4.97;;;14.00;82.10;;;;;;9180814;19;20018;-67
2023/08/31 06:25:11;;;;;;;11.68;5.30;;;14.10;82.20;;;;;;9183184;19;20015;-69
2023/08/31 06:28:18;;;;;;;11.23;5.07;;;14.20;82.10;;;;;;9177015;19;20026;-67
2023/08/31 06:31:24;;;;;;;12.27;5.20;;;14.40;82.10;;;;;;9184034;19;20340;-67
2023/08/31 06:34:31;;;;;;;8.70;5.03;;;14.50;82.70;;;;;;9182674;19;20022;-68
2023/08/31 06:37:39;;;;;;;8.85;5.70;;;14.70;82.10;;;;;;9182608;19;20492;-68
2023/08/31 06:40:46;;;;;;;12.80;6.57;;;14.80;82.10;;;;;;9181773;19;20030;-67
2023/08/31 06:43:52;;;;;;;10.45;5.45;;;15.00;82.10;;;;;;9181707;19;20018;-67
2023/08/31 06:46:59;;;;;;;9.70;5.80;;;15.10;82.00;;;;;;9181980;19;20021;-71
2023/08/31 06:50:06;;;;;;;13.77;5.80;;;15.20;81.90;;;;;;9167502;19;20023;-70
2023/08/31 06:53:16;;;;;;;11.95;6.60;;;15.40;81.90;;;;;;9164744;19;20006;-69
2023/08/31 06:56:21;;;;;;;9.75;5.82;;;15.60;81.90;;;;;;9166298;19;20033;-71
2023/08/31 06:59:29;;;;;;;9.02;5.70;;;15.70;81.80;;;;;;9167474;19;20567;-69
2023/08/31 07:02:34;;;;;;;11.50;6.35;;;15.90;81.70;;;;;;9166946;19;20014;-69
2023/08/31 07:05:45;;;;;;;11.25;5.28;;;16.10;81.70;;;;;;9166468;19;20314;-69
2023/08/31 07:08:53;;;;;;;11.88;5.18;;;16.20;81.50;;;;;;9167344;19;20124;-69
2023/08/31 07:12:01;;;;;;;10.90;5.25;;;16.40;81.40;;;;;;9166064;19;20018;-68
2023/08/31 07:15:07;;;;;;;13.27;4.93;;;16.50;81.30;;;;;;9178932;19;20014;-70
2023/08/31 07:18:15;;;;;;;9.40;5.22;;;16.70;81.00;;;;;;9180836;19;20033;-69
2023/08/31 07:21:20;;;;;;;9.70;5.25;;;16.80;80.90;;;;;;9181244;19;20019;-71
2023/08/31 07:24:30;;;;;;;10.25;4.75;;;17.00;80.90;;;;;;9181034;19;20010;-71
2023/08/31 07:27:36;;;;;;;6.65;3.92;;;17.10;80.70;;;;;;9174342;19;20018;-71
2023/08/31 07:30:43;;;;;;;8.02;4.05;;;17.20;80.40;;;;;;9177724;19;20021;-69
2023/08/31 07:33:49;;;;;;;10.18;3.78;;;17.40;80.20;;;;;;9180058;19;20472;-69
2023/08/31 07:36:56;;;;;;;10.07;3.60;;;17.50;80.00;;;;;;9179956;19;20011;-69
2023/08/31 07:40:08;;;;;;;6.05;2.67;;;17.60;79.90;;;;;;9179952;19;20014;-69
2023/08/31 07:43:15;;;;;;;4.88;2.70;;;17.60;79.80;;;;;;9178316;19;20345;-67
2023/08/31 07:46:21;;;;;;;5.07;2.33;;;17.80;79.70;;;;;;9178034;19;20026;-71
2023/08/31 07:49:28;;;;;;;5.20;2.70;;;17.90;79.50;;;;;;9178109;19;20018;-70
2023/08/31 07:52:34;;;;;;;7.05;3.05;;;18.00;79.40;;;;;;9179250;19;20099;-70
2023/08/31 07:55:44;;;;;;;4.75;2.50;;;18.10;79.10;;;;;;9178520;19;20025;-69
2023/08/31 07:58:49;;;;;;;5.22;2.42;;;18.20;79.00;;;;;;9177915;19;20014;-69
2023/08/31 08:01:57;;;;;;;6.18;2.25;;;18.30;78.90;;;;;;9176133;19;20638;-70
2023/08/31 08:05:02;;;;;;;4.65;1.80;;;18.40;78.60;;;;;;9178126;19;20018;-70
2023/08/31 08:08:10;;;;;;;3.60;1.88;;;18.40;78.40;;;;;;9176718;19;20006;-69
2023/08/31 08:11:19;;;;;;;6.65;2.30;;;18.50;78.30;;;;;;9177657;19;20014;-70
2023/08/31 08:14:27;;;;;;;4.43;1.67;;;18.50;78.10;;;;;;9178803;19;20021;-69
2023/08/31 08:17:32;;;;;;;2.72;1.27;;;18.50;78.10;;;;;;9176730;19;20011;-68
2023/08/31 08:20:39;;;;;;;5.88;1.50;;;18.50;77.80;;;;;;9177954;19;20542;-69
2023/08/31 08:23:45;;;;;;;3.40;1.50;;;18.50;77.60;;;;;;9176856;19;20018;-68
2023/08/31 08:26:55;;;;;;;3.88;1.73;;;18.60;77.50;;;;;;9174579;19;20023;-68
2023/08/31 08:30:00;;;;;;;4.65;1.80;;;18.60;77.40;;;;;;9177817;19;20475;-69
2023/08/31 08:33:07;;;;;;;6.93;1.90;;;18.60;77.50;;;;;;9177838;19;20022;-69
2023/08/31 08:36:13;;;;;;;6.50;1.52;;;18.60;77.60;;;;;;9177782;19;20038;-69
2023/08/31 08:39:20;;;;;;;4.63;1.70;;;18.70;77.40;;;;;;9178249;19;20861;-70
2023/08/31 08:42:29;;;;;;;3.85;1.50;;;18.70;77.30;;;;;;9177855;19;20081;-70
2023/08/31 08:45:41;;;;;;;3.22;1.25;;;18.80;77.20;;;;;;9176605;19;20484;-69
2023/08/31 08:48:49;;;;;;;5.72;2.20;;;18.90;77.10;;;;;;9175898;19;20068;-71
2023/08/31 08:51:56;;;;;;;6.00;1.83;;;19.10;77.20;;;;;;9173713;19;20010;-68
2023/08/31 08:55:03;;;;;;;2.38;1.30;;;19.20;77.00;;;;;;9178149;19;20049;-68
2023/08/31 08:58:13;;;;;;;6.72;1.77;;;19.30;76.60;;;;;;9176719;19;20018;-68
2023/08/31 09:01:22;;;;;;;4.10;1.80;;;19.40;76.30;;;;;;9177340;19;20022;-70
2023/08/31 09:04:33;;;;;;;6.30;2.33;;;19.40;76.20;;;;;;9178587;19;20111;-68
2023/08/31 09:07:39;;;;;;;2.42;1.23;;;19.50;76.00;;;;;;9176937;19;20022;-69
2023/08/31 09:10:47;;;;;;;2.85;1.67;;;19.60;76.00;;;;;;9175627;19;20061;-68
2023/08/31 09:13:55;;;;;;;3.45;1.70;;;19.60;75.80;;;;;;9176426;19;20019;-70
2023/08/31 09:17:03;;;;;;;4.15;1.88;;;19.70;75.60;;;;;;9174788;19;20480;-69
2023/08/31 09:20:10;;;;;;;4.63;1.80;;;19.70;75.60;;;;;;9174664;19;20018;-70
2023/08/31 09:23:19;;;;;;;3.60;1.60;;;19.80;75.70;;;;;;9175077;19;20680;-69
2023/08/31 09:26:24;;;;;;;3.83;1.60;;;19.90;75.50;;;;;;9172424;19;20014;-70
2023/08/31 09:29:34;;;;;;;6.55;1.70;;;20.00;75.50;;;;;;9176166;19;20384;-70
2023/08/31 09:32:41;;;;;;;3.53;1.80;;;20.20;75.40;;;;;;9171689;19;20014;-71
2023/08/31 09:35:52;;;;;;;3.58;1.30;;;20.30;75.20;;;;;;9174280;19;20010;-70
2023/08/31 09:39:00;;;;;;;7.28;1.50;;;20.50;74.80;;;;;;9176123;19;20052;-69
2023/08/31 09:42:08;;;;;;;3.35;1.35;;;20.50;74.40;;;;;;9175979;19;20029;-70
2023/08/31 09:45:19;;;;;;;4.30;1.10;;;20.60;74.10;;;;;;9174091;19;20511;-70
2023/08/31 09:48:37;;;;;;;2.97;1.38;;;20.60;73.70;;;;;;9173676;19;20026;-69
2023/08/31 09:51:46;;;;;;;3.40;1.30;;;20.70;73.80;;;;;;9171448;19;20109;-69
2023/08/31 09:54:55;;;;;;;6.57;1.70;;;20.70;73.50;;;;;;9175053;19;20021;-69
2023/08/31 09:58:02;;;;;;;3.72;1.42;;;20.70;73.40;;;;;;9181898;19;20483;-68
2023/08/31 10:01:24;;;;;;;5.13;1.35;;;20.70;73.30;;;;;;9184272;19;20011;-69
2023/08/31 10:04:35;;;;;;;3.63;1.10;;;20.70;73.10;;;;;;9183886;19;20078;-68
2023/08/31 10:07:43;;;;;;;3.45;1.08;;;20.70;73.30;;;;;;9184446;19;20029;-70
2023/08/31 10:10:49;;;;;;;2.45;0.80;;;20.70;73.30;;;;;;9181649;19;20086;-70
2023/08/31 10:13:58;;;;;;;3.80;0.80;;;20.70;73.20;;;;;;9182319;19;20021;-70
2023/08/31 10:17:06;;;;;;;5.32;0.82;;;20.80;73.10;;;;;;9180736;19;20056;-71
2023/08/31 10:20:18;;;;;;;3.78;0.90;;;20.90;72.90;;;;;;9182995;19;20015;-69
2023/08/31 10:23:23;;;;;;;4.20;1.50;;;21.00;72.90;;;;;;9183334;19;20695;-68
2023/08/31 10:26:32;;;;;;;3.92;1.15;;;21.10;72.80;;;;;;9177656;19;20048;-72
2023/08/31 10:29:38;;;;;;;4.25;1.00;;;21.20;72.70;;;;;;9183004;19;20015;-68
2023/08/31 10:32:49;;;;;;;4.18;1.40;;;21.30;72.50;;;;;;9181628;19;20015;-71
2023/08/31 10:35:57;;;;;;;6.50;1.10;;;21.50;72.30;;;;;;9182451;19;20029;-71
2023/08/31 10:39:13;;;;;;;8.38;1.75;;;21.60;71.90;;;;;;9180860;19;20022;-71
2023/08/31 10:42:18;;;;;;;6.67;1.67;;;21.80;71.60;;;;;;9182552;19;20015;-68
2023/08/31 10:45:25;;;;;;;6.10;1.38;;;21.90;71.60;;;;;;9181818;19;20158;-68
2023/08/31 10:48:52;;;;;;;5.38;1.15;;;22.00;71.30;;;;;;9166977;19;20018;-69
2023/08/31 10:52:01;;;;;;;7.18;1.92;;;22.00;71.10;;;;;;9166963;19;20350;-70
2023/08/31 10:55:08;;;;;;;6.07;1.45;;;22.00;71.10;;;;;;9181841;19;20015;-70
2023/08/31 10:58:15;;;;;;;8.90;1.70;;;21.90;71.20;;;;;;9179414;19;20006;-68
2023/08/31 11:02:01;;;;;;;7.25;1.85;;;21.90;71.20;;;;;;9181776;19;20052;-69
2023/08/31 11:05:15;;;;;;;5.07;1.10;;;21.80;70.70;;;;;;9178627;19;20018;-69
2023/08/31 11:08:24;;;;;;;8.70;1.23;;;21.60;70.70;;;;;;9177669;19;20028;-69
2023/08/31 11:11:40;;;;;;;6.22;1.00;;;21.40;70.80;;;;;;9175840;19;20007;-69
2023/08/31 11:14:45;;;;;;;8.30;1.42;;;21.20;70.80;;;;;;9173013;19;20498;-69
2023/08/31 11:17:54;;;;;;;6.15;1.10;;;21.00;71.00;;;;;;9175019;19;20070;-69
2023/08/31 11:21:02;;;;;;;5.47;1.05;;;20.90;71.10;;;;;;9174648;19;20026;-72
2023/08/31 11:24:10;;;;;;;4.50;1.17;;;20.80;71.40;;;;;;9174396;19;20518;-69
2023/08/31 11:27:16;;;;;;;3.35;1.02;;;20.80;71.60;;;;;;9171134;19;20377;-69
2023/08/31 11:30:24;;;;;;;4.00;1.17;;;20.80;71.70;;;;;;9174465;19;20046;-70
2023/08/31 11:33:37;;;;;;;8.90;1.30;;;20.70;71.70;;;;;;9172935;19;20344;-70
2023/08/31 11:36:49;;;;;;;3.55;0.70;;;20.80;71.70;;;;;;9174478;19;20021;-69
2023/08/31 11:39:55;;;;;;;8.85;1.30;;;20.80;71.70;;;;;;9173138;19;20599;-68
2023/08/31 11:43:03;;;;;;;6.20;1.27;;;20.90;71.70;;;;;;9172907;19;20021;-69
2023/08/31 11:46:09;;;;;;;2.30;0.88;;;21.10;71.50;;;;;;9174504;19;20109;-70
2023/08/31 11:49:17;;;;;;;6.63;1.08;;;21.20;71.40;;;;;;9172786;19;20049;-69
2023/08/31 11:52:25;;;;;;;6.25;1.40;;;21.30;71.20;;;;;;9172789;19;20067;-69
2023/08/31 11:55:35;;;;;;;6.93;1.52;;;21.40;70.80;;;;;;9173905;19;20019;-69
2023/08/31 11:58:45;;;;;;;5.78;1.00;;;21.50;70.80;;;;;;9171443;19;20014;-70
2023/08/31 12:02:11;;;;;;;7.68;1.02;;;21.70;70.60;;;;;;9173722;19;20022;-69
2023/08/31 12:05:16;;;;;;;9.88;1.08;;;21.80;70.50;;;;;;9172853;19;20018;-70
2023/08/31 12:08:30;;;;;;;3.17;0.98;;;21.90;70.10;;;;;;9171076;19;20428;-71
2023/08/31 12:11:35;;;;;;;5.03;1.20;;;22.10;69.80;;;;;;9176199;19;20014;-69
2023/08/31 12:14:42;;;;;;;5.78;1.00;;;22.20;70.20;;;;;;9171675;19;20354;-70
2023/08/31 12:17:54;;;;;;;8.65;1.15;;;22.30;69.30;;;;;;9175147;19;20026;-73
2023/08/31 12:21:03;;;;;;;5.35;1.17;;;22.40;69.10;;;;;;9176329;19;20025;-68
2023/08/31 12:24:11;;;;;;;5.82;1.30;;;22.40;68.90;;;;;;9177299;19;20015;-69
2023/08/31 12:27:19;;;;;;;3.47;1.02;;;22.50;68.50;;;;;;9174178;19;20866;-68
2023/08/31 12:30:25;;;;;;;6.63;1.48;;;22.50;68.50;;;;;;9178322;19;20041;-69
2023/08/31 12:33:33;;;;;;;6.50;1.60;;;22.40;68.50;;;;;;9174136;19;20015;-69
2023/08/31 12:36:40;;;;;;;13.38;3.33;;;;;;;;;;9177945;19;20043;-69
2023/08/31 12:39:51;;;;;;;24.60;3.40;;;22.30;68.40;;;;;;9177321;19;20018;-68
2023/08/31 12:42:56;;;;;;;3.88;1.00;;;22.10;69.00;;;;;;9177012;19;20021;-67
2023/08/31 12:46:05;;;;;;;9.43;1.13;;;21.80;68.90;;;;;;9177041;19;20019;-64
2023/08/31 12:49:10;;;;;;;4.20;1.15;;;21.50;69.20;;;;;;9173366;19;20015;-64
2023/08/31 12:52:18;;;;;;;4.55;1.15;;;21.20;69.40;;;;;;9176442;19;20026;-65
2023/08/31 12:55:26;;;;;;;5.65;1.10;;;21.00;69.80;;;;;;9177209;19;20015;-66
2023/08/31 12:58:33;;;;;;;5.55;1.00;;;20.80;70.10;;;;;;9177207;19;20023;-66
2023/08/31 13:01:38;;;;;;;4.75;1.00;;;20.70;70.60;;;;;;9177631;19;20015;-66
2023/08/31 13:04:45;;;;;;;7.13;1.08;;;20.60;70.90;;;;;;9176506;19;20026;-65
2023/08/31 13:07:51;;;;;;;6.05;1.00;;;20.50;71.20;;;;;;9174931;19;20026;-65
2023/08/31 13:11:01;;;;;;;8.57;2.03;;;20.40;71.40;;;;;;9172121;19;20015;-68
2023/08/31 13:14:06;;;;;;;7.60;1.60;;;20.40;71.90;;;;;;9171117;19;20026;-66
2023/08/31 13:17:14;;;;;;;5.63;1.20;;;20.30;71.90;;;;;;9170494;19;20006;-66
2023/08/31 13:20:20;;;;;;;3.35;1.48;;;20.30;72.20;;;;;;9169276;19;20042;-67
2023/08/31 13:23:27;;;;;;;4.05;1.02;;;20.40;72.30;;;;;;9170471;19;20393;-68
2023/08/31 13:26:35;;;;;;;3.92;0.88;;;20.40;72.20;;;;;;9166109;19;20018;-67
2023/08/31 13:29:43;;;;;;;4.15;1.48;;;20.40;72.10;;;;;;9170334;19;20017;-67
2023/08/31 13:32:48;;;;;;;4.10;1.13;;;20.40;72.00;;;;;;9179008;19;20018;-65
2023/08/31 13:35:56;;;;;;;5.10;1.42;;;20.30;72.00;;;;;;9178689;19;20017;-64
2023/08/31 13:39:02;;;;;;;3.78;0.93;;;20.30;71.90;;;;;;9178125;19;20031;-68
2023/08/31 13:42:12;;;;;;;2.00;0.75;;;20.20;72.10;;;;;;9179004;19;20018;-65
2023/08/31 13:45:18;;;;;;;3.13;0.93;;;20.10;72.20;;;;;;9176270;19;20036;-64
2023/08/31 13:48:25;;;;;;;8.52;1.02;;;20.10;72.30;;;;;;9177317;19;20103;-64
2023/08/31 13:51:31;;;;;;;2.83;0.75;;;20.00;72.50;;;;;;9175957;19;20034;-64
2023/08/31 13:54:38;;;;;;;2.60;1.60;;;19.90;72.70;;;;;;9177008;19;20024;-66
2023/08/31 13:57:46;;;;;;;2.67;1.23;;;19.90;72.80;;;;;;9179034;19;20042;-65
2023/08/31 14:00:54;;;;;;;5.07;1.10;;;19.80;72.90;;;;;;9174920;19;20929;-65
2023/08/31 14:03:59;;;;;;;2.90;0.90;;;19.80;72.90;;;;;;9177204;19;20098;-66
2023/08/31 14:07:07;;;;;;;5.18;0.85;;;19.80;73.00;;;;;;9175359;19;20014;-67
2023/08/31 14:10:13;;;;;;;6.80;1.33;;;19.70;73.10;;;;;;9174684;19;20035;-69
2023/08/31 14:13:23;;;;;;;4.78;1.00;;;19.70;73.10;;;;;;9177124;19;20464;-67
2023/08/31 14:16:28;;;;;;;8.60;1.30;;;19.60;73.40;;;;;;9177448;19;20029;-67
2023/08/31 14:19:37;;;;;;;9.73;2.00;;;19.50;73.50;;;;;;9175583;19;20014;-67
2023/08/31 14:22:45;;;;;;;5.00;1.38;;;19.60;73.80;;;;;;9178393;19;20031;-70
2023/08/31 14:25:52;;;;;;;6.97;1.77;;;19.60;73.90;;;;;;9173861;19;20018;-67
2023/08/31 14:29:01;;;;;;;4.63;1.38;;;19.60;74.00;;;;;;9176201;19;20022;-65
2023/08/31 14:32:08;;;;;;;5.72;1.40;;;19.60;74.20;;;;;;9177208;19;20368;-67
2023/08/31 14:35:14;;;;;;;6.43;1.40;;;19.70;74.30;;;;;;9174184;19;20480;-69
2023/08/31 14:38:24;;;;;;;6.95;1.52;;;19.70;74.30;;;;;;9177180;19;20018;-67
2023/08/31 14:41:29;;;;;;;5.90;1.20;;;19.80;74.50;;;;;;9176827;19;20345;-65
2023/08/31 14:44:39;;;;;;;3.17;1.05;;;19.90;74.40;;;;;;9175780;19;20015;-67
2023/08/31 14:47:44;;;;;;;1.73;1.05;;;19.90;74.40;;;;;;9175291;19;20517;-65
2023/08/31 14:50:52;;;;;;;6.15;1.67;;;20.00;74.30;;;;;;9177154;19;20015;-66
2023/08/31 14:53:58;;;;;;;9.95;1.50;;;20.10;74.30;;;;;;9178233;19;20021;-68
2023/08/31 14:57:06;;;;;;;7.50;1.60;;;20.20;74.20;;;;;;9177625;19;20010;-67
2023/08/31 15:00:15;;;;;;;7.68;1.60;;;20.30;74.10;;;;;;9178743;19;20022;-66
2023/08/31 15:03:23;;;;;;;2.55;1.00;;;20.30;74.00;;;;;;9179844;19;20483;-69
2023/08/31 15:06:32;;;;;;;6.13;1.20;;;20.40;73.80;;;;;;9178922;19;20437;-68
2023/08/31 15:09:39;;;;;;;7.10;1.50;;;20.50;73.50;;;;;;9179117;19;20041;-66
2023/08/31 15:12:45;;;;;;;9.07;1.35;;;20.50;73.40;;;;;;9178766;19;20484;-67
2023/08/31 15:15:55;;;;;;;4.53;1.55;;;20.50;73.30;;;;;;9176181;19;20585;-65
2023/08/31 15:19:00;;;;;;;5.30;1.13;;;20.50;73.30;;;;;;9179116;19;20082;-66
2023/08/31 15:22:10;;;;;;;6.78;1.58;;;20.60;73.30;;;;;;9179854;19;20018;-66
2023/08/31 15:25:15;;;;;;;5.47;1.00;;;20.60;73.20;;;;;;9181384;19;20018;-66
2023/08/31 15:28:23;;;;;;;8.02;1.27;;;20.60;73.00;;;;;;9176276;19;20018;-65
2023/08/31 15:31:31;;;;;;;6.72;1.30;;;20.60;72.80;;;;;;9178194;19;20358;-64
2023/08/31 15:34:38;;;;;;;9.20;1.38;;;20.60;72.60;;;;;;9179017;19;20050;-65
2023/08/31 15:37:47;;;;;;;5.20;0.95;;;20.60;72.50;;;;;;9179209;19;20019;-65
2023/08/31 15:40:57;;;;;;;7.03;2.08;;;20.60;72.40;;;;;;9177668;19;20006;-66
2023/08/31 15:44:03;;;;;;;6.30;1.48;;;20.60;72.40;;;;;;9177853;19;20018;-65
2023/08/31 15:47:13;;;;;;;6.03;1.50;;;20.50;72.40;;;;;;9175091;19;20269;-67
2023/08/31 15:50:20;;;;;;;5.32;1.80;;;20.50;72.40;;;;;;9174281;19;20487;-68
2023/08/31 15:53:30;;;;;;;5.53;1.08;;;20.50;72.40;;;;;;9176144;19;20022;-68
2023/08/31 15:56:35;;;;;;;10.18;1.20;;;20.40;72.20;;;;;;9175460;19;20018;-66
2023/08/31 15:59:43;;;;;;;5.05;1.15;;;20.30;72.10;;;;;;9179366;19;20029;-67
2023/08/31 16:02:51;;;;;;;5.43;1.02;;;20.30;72.00;;;;;;9176986;19;20034;-67
2023/08/31 16:05:59;;;;;;;12.00;1.85;;;20.20;71.80;;;;;;9178682;19;20014;-66
2023/08/31 16:09:04;;;;;;;7.00;1.50;;;20.10;71.80;;;;;;9179273;19;20014;-65
2023/08/31 16:12:11;;;;;;;3.72;1.40;;;20.10;71.90;;;;;;9179092;19;20018;-65
2023/08/31 16:15:17;;;;;;;8.05;1.60;;;20.10;71.90;;;;;;9178124;19;20467;-65